createdAt,value
2019-04-10T00:01:17.386Z,73.80
2019-04-10T00:03:48.537Z,73.90
2019-04-10T00:06:19.445Z,73.60
2019-04-10T00:08:50.621Z,74.30
2019-04-10T00:11:21.327Z,74.60
2019-04-10T00:13:51.959Z,74.80
2019-04-10T00:16:22.576Z,75.40
2019-04-10T00:18:53.994Z,75.60
2019-04-10T00:21:25.215Z,76.00
2019-04-10T00:23:56.092Z,76.30
2019-04-10T00:26:27.773Z,76.10
2019-04-10T00:29:00.134Z,76.10
2019-04-10T00:31:31.784Z,75.90
2019-04-10T00:34:02.573Z,75.50
2019-04-10T00:36:33.623Z,75.90
2019-04-10T00:39:06.451Z,76.40
2019-04-10T00:41:37.271Z,76.90
2019-04-10T00:44:07.990Z,77.00
2019-04-10T00:46:38.644Z,76.60
2019-04-10T00:49:09.381Z,76.90
2019-04-10T00:51:40.047Z,77.20
2019-04-10T00:54:11.867Z,77.20
2019-04-10T00:56:43.336Z,76.90
2019-04-10T00:59:14.151Z,77.20
2019-04-10T01:01:45.693Z,77.60
2019-04-10T01:04:16.553Z,77.90
2019-04-10T01:06:48.187Z,78.10
2019-04-10T01:09:19.514Z,78.40
2019-04-10T01:11:50.243Z,78.40
2019-04-10T01:14:21.326Z,78.40
2019-04-10T01:16:52.039Z,78.50
2019-04-10T01:19:23.782Z,79.50
2019-04-10T01:21:54.915Z,79.70
2019-04-10T01:24:26.470Z,80.10
2019-04-10T01:26:57.102Z,80.10
2019-04-10T01:29:28.023Z,80.00
2019-04-10T01:31:59.532Z,80.10
2019-04-10T01:34:30.221Z,80.20
2019-04-10T01:37:00.896Z,81.10
2019-04-10T01:39:32.721Z,81.50
2019-04-10T01:42:03.970Z,81.40
2019-04-10T01:44:34.818Z,81.50
2019-04-10T01:47:06.691Z,81.50
2019-04-10T01:49:37.869Z,82.10
2019-04-10T01:52:08.935Z,82.50
2019-04-10T01:54:39.668Z,82.50
2019-04-10T01:57:10.443Z,83.30
2019-04-10T01:59:42.448Z,83.90
2019-04-10T02:02:19.780Z,84.20
2019-04-10T02:04:52.412Z,84.00
2019-04-10T02:07:24.390Z,84.40
2019-04-10T02:09:56.173Z,84.40
2019-04-10T02:12:26.819Z,84.30
2019-04-10T02:14:57.527Z,84.80
2019-04-10T02:17:28.573Z,85.30
2019-04-10T02:19:59.229Z,85.60
2019-04-10T02:22:30.773Z,86.00
2019-04-10T02:25:01.479Z,86.00
2019-04-10T02:27:32.179Z,86.80
2019-04-10T02:30:04.896Z,87.30
2019-04-10T02:32:37.105Z,87.60
2019-04-10T02:35:10.694Z,88.00
2019-04-10T02:37:41.692Z,87.70
2019-04-10T02:40:13.037Z,87.60
2019-04-10T02:42:45.187Z,88.80
2019-04-10T02:45:17.100Z,88.20
2019-04-10T02:47:48.737Z,88.80
2019-04-10T02:50:20.674Z,89.10
2019-04-10T02:52:51.684Z,89.20
2019-04-10T02:55:22.937Z,89.30
2019-04-10T02:57:56.144Z,89.40
2019-04-10T03:00:28.182Z,89.60
2019-04-10T03:02:59.339Z,90.00
2019-04-10T03:05:30.505Z,90.10
2019-04-10T03:08:02.000Z,90.50
2019-04-10T03:10:40.807Z,90.30
2019-04-10T03:13:05.233Z,90.30
2019-04-10T03:15:36.099Z,90.40
2019-04-10T03:18:06.894Z,90.60
2019-04-10T03:20:38.448Z,90.70
2019-04-10T03:23:09.400Z,91.00
2019-04-10T03:25:41.285Z,91.10
2019-04-10T03:28:12.165Z,91.10
2019-04-10T03:30:44.334Z,91.10
2019-04-10T03:33:31.054Z,91.30
2019-04-10T03:36:00.347Z,91.20
2019-04-10T03:38:32.081Z,91.30
2019-04-10T03:41:03.912Z,91.50
2019-04-10T03:43:34.730Z,91.70
2019-04-10T03:46:05.460Z,91.90
2019-04-10T03:48:36.788Z,91.80
2019-04-10T03:51:08.206Z,91.90
2019-04-10T03:53:38.973Z,92.10
2019-04-10T03:56:09.619Z,92.60
2019-04-10T03:58:40.335Z,92.20
2019-04-10T04:01:11.071Z,92.50
2019-04-10T04:03:42.672Z,92.60
2019-04-10T04:06:13.403Z,93.20
2019-04-10T04:08:44.088Z,93.50
2019-04-10T04:11:15.622Z,93.40
2019-04-10T04:13:46.325Z,93.20
2019-04-10T04:16:17.189Z,93.20
2019-04-10T04:18:47.770Z,93.00
2019-04-10T04:21:19.460Z,93.00
2019-04-10T04:23:51.095Z,93.10
2019-04-10T04:26:23.015Z,93.10
2019-04-10T04:28:53.972Z,93.20
2019-04-10T04:31:24.927Z,93.20
2019-04-10T04:33:55.718Z,93.10
2019-04-10T04:36:26.735Z,93.40
2019-04-10T04:38:57.762Z,93.50
2019-04-10T04:41:28.465Z,93.70
2019-04-10T04:43:59.092Z,93.70
2019-04-10T04:46:29.891Z,93.70
2019-04-10T04:49:00.896Z,93.70
2019-04-10T04:51:33.000Z,93.70
2019-04-10T04:54:04.559Z,93.60
2019-04-10T04:56:35.718Z,93.70
2019-04-10T04:59:06.600Z,93.40
2019-04-10T05:01:38.298Z,93.30
2019-04-10T05:04:09.083Z,93.30
2019-04-10T05:06:39.685Z,93.10
2019-04-10T05:09:11.256Z,93.00
2019-04-10T05:11:42.677Z,93.00
2019-04-10T05:14:13.374Z,93.00
2019-04-10T05:16:44.128Z,92.90
2019-04-10T05:19:14.728Z,92.80
2019-04-10T05:21:45.657Z,92.70
2019-04-10T05:24:16.439Z,92.70
2019-04-10T05:26:47.123Z,92.50
2019-04-10T05:29:18.178Z,92.50
2019-04-10T05:31:49.055Z,92.50
2019-04-10T05:34:19.967Z,92.40
2019-04-10T05:36:51.228Z,91.90
2019-04-10T05:39:22.472Z,92.00
2019-04-10T05:41:54.757Z,91.70
2019-04-10T05:44:25.755Z,91.40
2019-04-10T05:46:56.934Z,91.10
2019-04-10T05:49:27.583Z,90.90
2019-04-10T05:51:58.168Z,90.30
2019-04-10T05:54:29.095Z,85.70
2019-04-10T05:57:01.052Z,77.40
2019-04-10T05:59:32.160Z,68.20
2019-04-10T06:02:03.147Z,66.60
2019-04-10T06:04:33.858Z,60.30
2019-04-10T06:07:05.286Z,55.90
2019-04-10T06:09:36.567Z,55.00
2019-04-10T06:12:09.778Z,52.50
2019-04-10T06:14:42.002Z,49.70
2019-04-10T06:17:14.117Z,46.60
2019-04-10T06:19:44.959Z,45.40
2019-04-10T06:22:16.633Z,44.10
2019-04-10T06:24:47.477Z,41.90
2019-04-10T06:27:18.489Z,39.70
2019-04-10T06:29:49.213Z,37.50
2019-04-10T06:32:19.844Z,35.20
2019-04-10T06:34:50.554Z,36.30
2019-04-10T06:37:21.950Z,35.10
2019-04-10T06:40:03.651Z,34.80
2019-04-10T06:42:25.147Z,34.30
2019-04-10T06:44:56.431Z,36.10
2019-04-10T06:47:27.176Z,35.30
2019-04-10T06:49:58.758Z,32.10
2019-04-10T06:52:30.411Z,30.50
2019-04-10T06:55:01.158Z,30.50
2019-04-10T06:57:36.186Z,29.70
2019-04-10T07:00:06.370Z,29.80
2019-04-10T07:02:37.255Z,29.80
2019-04-10T07:05:10.493Z,29.90
2019-04-10T07:07:50.780Z,29.40
2019-04-10T07:10:23.767Z,29.80
2019-04-10T07:12:45.955Z,28.60
2019-04-10T07:15:20.089Z,28.80
2019-04-10T07:17:49.332Z,28.10
2019-04-10T07:20:21.298Z,29.00
2019-04-10T07:22:53.241Z,30.70
2019-04-10T07:25:25.703Z,30.00
2019-04-10T07:27:58.134Z,30.00
2019-04-10T07:30:29.834Z,27.70
2019-04-10T07:33:01.426Z,27.70
2019-04-10T07:35:33.888Z,27.10
2019-04-10T07:38:05.533Z,26.70
2019-04-10T07:40:36.859Z,26.90
2019-04-10T07:43:07.603Z,26.50
2019-04-10T07:45:38.522Z,25.40
2019-04-10T07:48:09.412Z,25.90
2019-04-10T07:50:41.372Z,28.10
2019-04-10T07:53:12.778Z,27.40
2019-04-10T07:55:57.491Z,25.90
2019-04-10T07:58:15.989Z,25.60
2019-04-10T08:00:46.971Z,23.70
2019-04-10T08:03:18.852Z,22.70
2019-04-10T08:05:50.314Z,22.40
2019-04-10T08:08:21.479Z,23.10
2019-04-10T08:10:53.007Z,24.30
2019-04-10T08:13:24.579Z,24.20
2019-04-10T08:15:56.320Z,23.30
2019-04-10T08:18:27.613Z,24.80
2019-04-10T08:20:59.268Z,22.70
2019-04-10T08:23:30.204Z,22.90
2019-04-10T08:26:00.962Z,22.70
2019-04-10T08:28:32.676Z,22.20
2019-04-10T08:31:04.426Z,22.60
2019-04-10T08:33:35.657Z,21.40
2019-04-10T08:36:07.479Z,20.50
2019-04-10T08:38:38.274Z,19.60
2019-04-10T08:41:08.873Z,20.80
2019-04-10T08:43:39.698Z,22.30
2019-04-10T08:46:10.833Z,22.50
2019-04-10T08:48:41.532Z,20.50
2019-04-10T08:51:12.192Z,20.60
2019-04-10T08:53:44.533Z,20.60
2019-04-10T08:56:16.181Z,19.50
2019-04-10T08:58:48.242Z,19.90
2019-04-10T09:01:19.204Z,18.90
2019-04-10T09:03:50.924Z,19.10
2019-04-10T09:06:21.625Z,20.30
2019-04-10T09:08:53.079Z,22.90
2019-04-10T09:11:26.924Z,21.70
2019-04-10T09:13:56.910Z,21.00
2019-04-10T09:16:28.752Z,22.60
2019-04-10T09:18:59.819Z,23.70
2019-04-10T09:21:31.616Z,23.40
2019-04-10T09:24:02.684Z,22.10
2019-04-10T09:26:33.381Z,20.20
2019-04-10T09:29:04.597Z,18.20
2019-04-10T09:31:35.701Z,19.00
2019-04-10T09:34:07.599Z,22.20
2019-04-10T09:36:39.533Z,27.50
2019-04-10T09:39:11.501Z,31.30
2019-04-10T09:41:42.220Z,30.60
2019-04-10T09:44:12.822Z,31.40
2019-04-10T09:46:43.418Z,33.20
2019-04-10T09:49:14.402Z,36.60
2019-04-10T09:51:46.076Z,36.70
2019-04-10T09:54:17.504Z,34.20
2019-04-10T09:56:48.520Z,34.40
2019-04-10T09:59:30.592Z,36.80
2019-04-10T10:01:52.751Z,37.40
2019-04-10T10:04:23.708Z,39.10
2019-04-10T10:06:55.659Z,41.70
2019-04-10T10:09:29.063Z,43.00
2019-04-10T10:11:58.969Z,42.00
2019-04-10T10:14:32.702Z,41.90
2019-04-10T10:17:02.333Z,39.20
2019-04-10T10:19:36.325Z,36.80
2019-04-10T10:22:07.603Z,39.60
2019-04-10T10:24:40.461Z,39.20
2019-04-10T10:27:11.105Z,36.30
2019-04-10T10:29:44.115Z,35.00
2019-04-10T10:32:19.212Z,37.10
2019-04-10T10:34:52.892Z,39.30
2019-04-10T10:37:24.109Z,41.00
2019-04-10T10:39:54.932Z,41.80
2019-04-10T10:42:25.766Z,39.20
2019-04-10T10:44:58.485Z,29.50
2019-04-10T10:47:30.602Z,23.90
2019-04-10T10:50:01.323Z,25.30
2019-04-10T10:52:31.956Z,30.10
2019-04-10T10:55:06.029Z,34.10
2019-04-10T10:57:37.501Z,29.40
2019-04-10T11:00:13.036Z,27.30
2019-04-10T11:02:43.547Z,30.00
2019-04-10T11:05:14.619Z,34.80
2019-04-10T11:07:47.006Z,38.40
2019-04-10T11:10:22.885Z,38.50
2019-04-10T11:12:50.758Z,39.20
2019-04-10T11:15:23.791Z,40.90
2019-04-10T11:17:55.257Z,43.40
2019-04-10T11:20:25.979Z,44.10
2019-04-10T11:22:57.718Z,44.70
2019-04-10T11:25:28.703Z,43.10
2019-04-10T11:28:00.195Z,40.80
2019-04-10T11:30:32.389Z,39.50
2019-04-10T11:33:03.171Z,37.50
2019-04-10T11:35:34.928Z,37.20
2019-04-10T11:38:06.003Z,36.60
2019-04-10T11:40:37.058Z,34.90
2019-04-10T11:43:09.963Z,35.00
2019-04-10T11:45:44.099Z,34.40
2019-04-10T11:48:15.577Z,33.50
2019-04-10T11:50:46.144Z,34.10
2019-04-10T11:53:17.774Z,34.80
2019-04-10T11:55:52.520Z,35.40
2019-04-10T11:58:22.401Z,34.70
2019-04-10T12:00:57.339Z,34.60
2019-04-10T12:03:27.204Z,35.20
2019-04-10T12:05:59.821Z,35.90
2019-04-10T12:09:00.352Z,36.30
2019-04-10T12:13:34.483Z,37.10
2019-04-10T12:16:07.060Z,37.80
2019-04-10T12:18:38.404Z,36.40
2019-04-10T12:21:09.365Z,35.80
2019-04-10T12:23:40.940Z,35.60
2019-04-10T12:26:11.734Z,35.70
2019-04-10T12:28:42.443Z,36.00
2019-04-10T12:31:13.256Z,36.90
2019-04-10T12:33:44.424Z,36.80
2019-04-10T12:36:15.300Z,35.30
2019-04-10T12:38:46.009Z,35.10
2019-04-10T12:41:17.289Z,36.70
2019-04-10T12:43:48.093Z,36.30
2019-04-10T12:46:19.156Z,36.60
2019-04-10T12:48:50.710Z,36.00
2019-04-10T12:51:21.554Z,36.20
2019-04-10T12:53:52.185Z,36.80
2019-04-10T12:56:24.039Z,35.70
2019-04-10T12:58:55.150Z,35.60
2019-04-10T13:01:26.917Z,36.30
2019-04-10T13:03:57.915Z,36.20
2019-04-10T13:06:29.666Z,37.10
2019-04-10T13:09:07.319Z,36.20
2019-04-10T13:11:32.756Z,36.30
2019-04-10T13:14:03.440Z,36.30
2019-04-10T13:16:34.215Z,35.30
2019-04-10T13:19:04.997Z,35.80
2019-04-10T13:21:36.854Z,36.00
2019-04-10T13:24:07.584Z,36.20
2019-04-10T13:26:38.461Z,36.90
2019-04-10T13:29:09.128Z,37.10
2019-04-10T13:31:39.872Z,37.50
2019-04-10T13:34:11.169Z,36.50
2019-04-10T13:36:41.984Z,35.90
2019-04-10T13:39:17.309Z,34.80
2019-04-10T13:41:46.790Z,35.60
2019-04-10T13:44:18.221Z,35.20
2019-04-10T13:46:51.214Z,35.00
2019-04-10T13:49:26.119Z,34.80
2019-04-10T13:51:57.018Z,35.10
2019-04-10T13:54:28.360Z,34.70
2019-04-10T13:56:59.379Z,34.90
2019-04-10T13:59:31.082Z,34.40
2019-04-10T14:02:02.799Z,33.90
2019-04-10T14:04:33.453Z,33.90
2019-04-10T14:07:04.904Z,34.00
2019-04-10T14:09:43.007Z,33.90
2019-04-10T14:12:08.069Z,33.60
2019-04-10T14:14:38.821Z,33.00
2019-04-10T14:17:09.633Z,33.20
2019-04-10T14:19:41.480Z,33.80
2019-04-10T14:22:13.474Z,33.40
2019-04-10T14:24:47.360Z,32.80
2019-04-10T14:27:21.175Z,33.50
2019-04-10T14:29:52.551Z,32.90
2019-04-10T14:32:49.296Z,32.50
2019-04-10T14:35:21.080Z,31.50
2019-04-10T14:37:51.795Z,31.90
2019-04-10T14:40:22.640Z,31.60
2019-04-10T14:42:53.562Z,31.20
2019-04-10T14:45:25.516Z,31.30
2019-04-10T14:47:57.189Z,31.60
2019-04-10T14:50:29.470Z,32.40
2019-04-10T14:53:01.267Z,32.10
2019-04-10T14:55:32.002Z,33.20
2019-04-10T14:58:03.443Z,32.70
2019-04-10T15:00:42.899Z,32.90
2019-04-10T15:03:13.837Z,32.60
2019-04-10T15:05:50.220Z,32.40
2019-04-10T15:08:17.582Z,32.10
2019-04-10T15:10:48.751Z,30.90
2019-04-10T15:13:22.440Z,31.50
2019-04-10T15:15:52.980Z,31.80
2019-04-10T15:18:23.585Z,31.80
2019-04-10T15:20:54.385Z,31.60
2019-04-10T15:23:25.334Z,31.70
2019-04-10T15:25:56.136Z,31.60
2019-04-10T15:28:27.435Z,32.70
2019-04-10T15:30:59.890Z,33.10
2019-04-10T15:33:31.763Z,33.00
2019-04-10T15:36:02.480Z,33.60
2019-04-10T15:38:33.913Z,33.20
2019-04-10T15:41:06.459Z,32.50
2019-04-10T15:43:37.456Z,32.00
2019-04-10T15:46:08.772Z,32.90
2019-04-10T15:48:39.840Z,32.60
2019-04-10T15:51:10.434Z,31.90
2019-04-10T15:53:41.092Z,32.10
2019-04-10T15:56:12.181Z,32.90
2019-04-10T15:58:43.801Z,32.80
2019-04-10T16:01:18.105Z,32.90
2019-04-10T16:03:48.908Z,32.60
2019-04-10T16:06:20.955Z,32.40
2019-04-10T16:08:52.387Z,33.10
2019-04-10T16:11:50.169Z,32.80
2019-04-10T16:14:24.504Z,33.10
2019-04-10T16:17:11.035Z,32.80
2019-04-10T16:19:51.305Z,33.40
2019-04-10T16:22:28.819Z,33.10
2019-04-10T16:25:03.193Z,33.30
2019-04-10T16:27:37.365Z,33.10
2019-04-10T16:30:12.329Z,33.40
2019-04-10T16:32:43.953Z,33.20
2019-04-10T16:35:15.732Z,32.90
2019-04-10T16:37:47.492Z,32.90
2019-04-10T16:40:18.559Z,33.00
2019-04-10T16:42:49.441Z,33.40
2019-04-10T16:45:20.294Z,33.40
2019-04-10T16:47:51.102Z,33.50
2019-04-10T16:50:21.712Z,33.60
2019-04-10T16:52:53.566Z,35.50
2019-04-10T16:55:24.863Z,34.90
2019-04-10T16:57:57.312Z,35.60
2019-04-10T17:00:29.098Z,36.20
2019-04-10T17:03:00.372Z,35.80
2019-04-10T17:05:33.615Z,35.30
2019-04-10T17:08:03.764Z,35.40
2019-04-10T17:10:34.751Z,35.60
2019-04-10T17:13:07.250Z,35.10
2019-04-10T17:15:38.453Z,34.70
2019-04-10T17:18:09.160Z,34.70
2019-04-10T17:20:40.450Z,35.20
2019-04-10T17:23:12.296Z,35.30
2019-04-10T17:25:44.346Z,35.40
2019-04-10T17:28:16.327Z,35.40
2019-04-10T17:30:47.303Z,35.40
2019-04-10T17:33:18.575Z,35.90
2019-04-10T17:35:52.473Z,36.10
2019-04-10T17:38:26.719Z,36.60
2019-04-10T17:41:00.585Z,36.80
2019-04-10T17:43:32.886Z,37.00
2019-04-10T17:46:04.008Z,37.60
2019-04-10T17:48:37.218Z,38.20
2019-04-10T17:51:07.964Z,38.60
2019-04-10T17:53:39.932Z,38.70
2019-04-10T17:56:11.741Z,39.20
2019-04-10T17:58:43.427Z,39.80
2019-04-10T18:01:17.093Z,40.20
2019-04-10T18:03:53.193Z,40.40
2019-04-10T18:06:21.433Z,39.70
2019-04-10T18:08:53.452Z,39.70
2019-04-10T18:11:27.862Z,40.00
2019-04-10T18:14:00.838Z,40.00
2019-04-10T18:16:31.891Z,40.00
2019-04-10T18:19:02.664Z,40.20
2019-04-10T18:21:35.137Z,40.40
2019-04-10T18:24:06.279Z,40.70
2019-04-10T18:26:37.190Z,40.90
2019-04-10T18:29:10.184Z,41.50
2019-04-10T18:31:43.169Z,41.40
2019-04-10T18:34:14.430Z,41.30
2019-04-10T18:36:48.484Z,41.70
2019-04-10T18:39:22.056Z,42.00
2019-04-10T18:41:54.034Z,42.00
2019-04-10T18:44:29.048Z,42.00
2019-04-10T18:47:00.663Z,42.20
2019-04-10T18:49:31.630Z,42.30
2019-04-10T18:52:03.340Z,42.60
2019-04-10T18:54:34.397Z,42.70
2019-04-10T18:57:05.473Z,43.20
2019-04-10T18:59:58.982Z,43.80
2019-04-10T19:02:52.913Z,43.90
2019-04-10T19:05:27.857Z,44.20
2019-04-10T19:07:58.849Z,44.70
2019-04-10T19:10:30.632Z,45.20
2019-04-10T19:13:01.614Z,46.10
2019-04-10T19:15:32.857Z,45.70
2019-04-10T19:18:07.582Z,45.80
2019-04-10T19:20:39.195Z,45.90
2019-04-10T19:23:13.002Z,45.90
2019-04-10T19:25:43.360Z,46.30
2019-04-10T19:28:27.680Z,47.10
2019-04-10T19:30:53.504Z,47.20
2019-04-10T19:33:31.672Z,47.20
2019-04-10T19:36:03.377Z,47.80
2019-04-10T19:38:37.786Z,48.40
2019-04-10T19:41:21.355Z,48.70
2019-04-10T19:43:44.306Z,49.00
2019-04-10T19:46:18.134Z,49.30
2019-04-10T19:49:08.209Z,49.80
2019-04-10T19:51:42.672Z,50.40
2019-04-10T19:54:15.851Z,51.20
2019-04-10T19:56:46.723Z,51.70
2019-04-10T19:59:35.630Z,51.80
2019-04-10T20:02:22.498Z,52.00
2019-04-10T20:04:56.977Z,52.60
2019-04-10T20:07:29.059Z,53.00
2019-04-10T20:10:02.075Z,53.50
2019-04-10T20:12:32.924Z,53.60
2019-04-10T20:15:04.448Z,54.10
2019-04-10T20:17:35.767Z,54.60
2019-04-10T20:20:13.209Z,55.30
2019-04-10T20:22:56.089Z,55.40
2019-04-10T20:25:30.322Z,55.60
2019-04-10T20:28:02.884Z,55.90
2019-04-10T20:30:46.707Z,56.70
2019-04-10T20:33:20.925Z,56.70
2019-04-10T20:35:52.852Z,57.80
2019-04-10T20:38:23.578Z,58.10
2019-04-10T20:40:54.568Z,58.70
2019-04-10T20:43:28.121Z,58.90
2019-04-10T20:46:00.120Z,59.00
2019-04-10T20:48:31.097Z,59.40
2019-04-10T20:51:01.871Z,60.20
2019-04-10T20:53:33.768Z,61.00
2019-04-10T20:56:04.707Z,61.50
2019-04-10T20:58:36.239Z,61.80
2019-04-10T21:01:08.246Z,61.80
2019-04-10T21:03:40.127Z,62.30
2019-04-10T21:06:11.294Z,62.60
2019-04-10T21:08:42.455Z,62.70
2019-04-10T21:11:13.866Z,63.10
2019-04-10T21:13:44.893Z,63.70
2019-04-10T21:16:18.063Z,63.70
2019-04-10T21:18:49.812Z,64.30
2019-04-10T21:21:20.507Z,66.20
2019-04-10T21:23:52.045Z,65.50
2019-04-10T21:26:23.931Z,66.40
2019-04-10T21:28:55.786Z,66.50
2019-04-10T21:31:36.343Z,66.60
2019-04-10T21:34:28.549Z,66.90
2019-04-10T21:36:59.744Z,67.10
2019-04-10T21:39:31.565Z,67.70
2019-04-10T21:42:12.086Z,67.50
2019-04-10T21:44:35.194Z,67.70
2019-04-10T21:47:05.958Z,67.80
2019-04-10T21:49:37.972Z,67.90
2019-04-10T21:52:09.810Z,67.70
2019-04-10T21:54:48.569Z,67.90
2019-04-10T21:57:13.746Z,68.30
2019-04-10T21:59:45.485Z,68.00
2019-04-10T22:02:17.375Z,68.00
2019-04-10T22:04:48.247Z,68.50
2019-04-10T22:07:32.332Z,68.40
2019-04-10T22:10:15.444Z,68.70
2019-04-10T22:12:47.720Z,69.20
2019-04-10T22:15:33.037Z,68.90
2019-04-10T22:18:03.752Z,69.10
2019-04-10T22:20:34.384Z,69.50
2019-04-10T22:23:05.116Z,69.90
2019-04-10T22:25:35.776Z,70.20
2019-04-10T22:28:06.532Z,70.70
2019-04-10T22:30:37.260Z,70.80
2019-04-10T22:33:07.883Z,70.90
2019-04-10T22:35:38.547Z,70.70
2019-04-10T22:38:09.193Z,70.70
2019-04-10T22:40:40.081Z,71.00
2019-04-10T22:43:11.681Z,71.40
2019-04-10T22:45:42.861Z,71.70
2019-04-10T22:48:14.604Z,71.50
2019-04-10T22:50:45.426Z,72.00
2019-04-10T22:53:17.187Z,72.20
2019-04-10T22:55:48.557Z,72.50
2019-04-10T22:58:19.352Z,72.30
2019-04-10T23:00:51.000Z,72.30
2019-04-10T23:03:22.340Z,72.60
2019-04-10T23:05:53.196Z,73.10
2019-04-10T23:08:23.860Z,73.50
2019-04-10T23:10:54.793Z,74.20
2019-04-10T23:13:25.894Z,75.00
2019-04-10T23:15:57.751Z,75.80
2019-04-10T23:18:29.651Z,75.70
2019-04-10T23:21:00.628Z,75.80
2019-04-10T23:23:31.417Z,76.00
2019-04-10T23:26:02.928Z,76.40
2019-04-10T23:28:33.793Z,76.50
2019-04-10T23:31:05.586Z,77.50
2019-04-10T23:33:36.561Z,77.50
2019-04-10T23:36:07.700Z,78.00
2019-04-10T23:38:39.604Z,78.20
2019-04-10T23:41:11.502Z,78.10
2019-04-10T23:43:42.147Z,77.80
2019-04-10T23:46:12.811Z,78.40
2019-04-10T23:48:44.605Z,78.60
2019-04-10T23:51:15.312Z,78.40
2019-04-10T23:53:46.896Z,78.40
2019-04-10T23:56:17.803Z,78.90
2019-04-10T23:58:49.185Z,79.50
